createdAt,value
2018-04-12T00:01:32.723Z,38.43
2018-04-12T00:04:01.026Z,34.83
2018-04-12T00:06:29.445Z,35.50
2018-04-12T00:08:57.816Z,36.97
2018-04-12T00:11:26.169Z,38.00
2018-04-12T00:13:54.492Z,35.40
2018-04-12T00:16:22.900Z,34.70
2018-04-12T00:18:51.275Z,34.67
2018-04-12T00:21:19.634Z,35.73
2018-04-12T00:23:47.923Z,35.17
2018-04-12T00:26:16.292Z,35.17
2018-04-12T00:28:44.597Z,36.43
2018-04-12T00:31:12.950Z,37.20
2018-04-12T00:33:41.309Z,36.87
2018-04-12T00:36:09.650Z,36.67
2018-04-12T00:38:37.956Z,37.37
2018-04-12T00:41:06.298Z,35.80
2018-04-12T00:43:34.637Z,35.20
2018-04-12T00:46:02.984Z,36.10
2018-04-12T00:48:31.478Z,35.20
2018-04-12T00:50:59.968Z,35.23
2018-04-12T00:53:37.201Z,36.90
2018-04-12T00:56:05.523Z,38.60
2018-04-12T00:58:33.853Z,35.77
2018-04-12T01:01:02.385Z,36.50
2018-04-12T01:03:30.767Z,35.07
2018-04-12T01:05:59.139Z,39.07
2018-04-12T01:08:27.416Z,37.50
2018-04-12T01:10:55.871Z,36.13
2018-04-12T01:13:24.148Z,36.57
2018-04-12T01:15:52.504Z,36.57
2018-04-12T01:18:20.763Z,37.13
2018-04-12T01:20:49.339Z,36.97
2018-04-12T01:23:17.639Z,36.90
2018-04-12T01:25:46.024Z,37.27
2018-04-12T01:28:14.336Z,37.40
2018-04-12T01:30:42.703Z,37.43
2018-04-12T01:33:16.384Z,39.20
2018-04-12T01:35:44.711Z,37.93
2018-04-12T01:38:13.003Z,36.30
2018-04-12T01:40:41.331Z,39.13
2018-04-12T01:43:09.711Z,40.00
2018-04-12T01:45:38.037Z,38.10
2018-04-12T01:48:06.364Z,38.07
2018-04-12T01:50:34.816Z,37.50
2018-04-12T01:53:03.155Z,36.77
2018-04-12T01:55:31.538Z,38.17
2018-04-12T01:57:59.843Z,40.27
2018-04-12T02:00:28.196Z,37.23
2018-04-12T02:02:56.535Z,38.53
2018-04-12T02:05:24.867Z,38.37
2018-04-12T02:07:53.296Z,38.70
2018-04-12T02:10:21.635Z,39.50
2018-04-12T02:12:49.995Z,37.87
2018-04-12T02:15:18.343Z,36.60
2018-04-12T02:17:46.640Z,36.30
2018-04-12T02:20:15.112Z,39.53
2018-04-12T02:22:43.474Z,37.10
2018-04-12T02:25:12.064Z,38.27
2018-04-12T02:27:40.335Z,37.70
2018-04-12T02:30:08.714Z,39.97
2018-04-12T02:32:37.232Z,38.50
2018-04-12T02:35:05.636Z,39.00
2018-04-12T02:37:34.019Z,40.53
2018-04-12T02:40:02.558Z,38.87
2018-04-12T02:42:31.015Z,39.10
2018-04-12T02:44:59.364Z,40.10
2018-04-12T02:47:27.780Z,42.00
2018-04-12T02:49:56.109Z,39.10
2018-04-12T02:52:24.521Z,39.10
2018-04-12T02:54:53.043Z,40.67
2018-04-12T02:57:21.375Z,39.17
2018-04-12T02:59:49.772Z,38.17
2018-04-12T03:02:18.096Z,37.70
2018-04-12T03:04:46.471Z,38.77
2018-04-12T03:07:14.836Z,40.90
2018-04-12T03:09:43.169Z,38.47
2018-04-12T03:12:11.482Z,37.73
2018-04-12T03:14:39.842Z,39.23
2018-04-12T03:17:08.317Z,39.30
2018-04-12T03:19:36.628Z,37.33
2018-04-12T03:22:05.037Z,39.67
2018-04-12T03:24:33.344Z,39.87
2018-04-12T03:27:01.692Z,40.70
2018-04-12T03:29:29.988Z,39.00
2018-04-12T03:31:58.307Z,41.97
2018-04-12T03:34:26.627Z,38.00
2018-04-12T03:36:54.956Z,40.70
2018-04-12T03:39:23.391Z,40.47
2018-04-12T03:41:52.072Z,38.70
2018-04-12T03:44:20.507Z,41.67
2018-04-12T03:46:49.065Z,40.43
2018-04-12T03:49:17.484Z,41.10
2018-04-12T03:51:45.833Z,40.30
2018-04-12T03:54:14.163Z,40.30
2018-04-12T03:56:42.519Z,40.77
2018-04-12T03:59:10.796Z,40.77
2018-04-12T04:04:34.661Z,41.50
2018-04-12T04:07:02.970Z,39.70
2018-04-12T04:09:31.239Z,39.57
2018-04-12T04:11:59.546Z,39.10
2018-04-12T04:14:36.789Z,40.10
2018-04-12T04:19:19.175Z,39.87
2018-04-12T04:21:47.491Z,39.57
2018-04-12T04:24:15.773Z,41.27
2018-04-12T04:26:44.092Z,39.77
2018-04-12T04:29:12.444Z,39.33
2018-04-12T04:31:40.847Z,40.27
2018-04-12T04:34:09.153Z,42.10
2018-04-12T04:36:37.594Z,40.47
2018-04-12T04:39:06.843Z,40.30
2018-04-12T04:41:35.183Z,40.27
2018-04-12T04:44:03.466Z,41.70
2018-04-12T04:46:31.801Z,39.00
2018-04-12T04:49:00.117Z,43.33
2018-04-12T04:51:28.481Z,41.20
2018-04-12T04:53:56.787Z,41.30
2018-04-12T04:56:25.135Z,41.03
2018-04-12T04:58:53.394Z,41.37
2018-04-12T05:01:21.719Z,41.17
2018-04-12T05:03:50.005Z,42.87
2018-04-12T05:06:18.317Z,41.03
2018-04-12T05:08:46.595Z,40.00
2018-04-12T05:11:14.878Z,38.83
2018-04-12T05:13:43.406Z,40.00
2018-04-12T05:16:11.863Z,41.70
2018-04-12T05:18:40.175Z,40.47
2018-04-12T05:21:08.627Z,40.17
2018-04-12T05:23:37.063Z,39.47
2018-04-12T05:26:05.379Z,39.30
2018-04-12T05:28:33.643Z,42.57
2018-04-12T05:33:36.589Z,38.70
2018-04-12T05:36:04.875Z,36.33
2018-04-12T05:38:33.332Z,37.10
2018-04-12T05:41:01.644Z,38.40
2018-04-12T05:43:30.004Z,39.20
2018-04-12T05:45:58.340Z,38.73
2018-04-12T05:48:26.719Z,37.60
2018-04-12T05:50:55.580Z,38.80
2018-04-12T05:53:23.936Z,36.87
2018-04-12T05:55:52.675Z,37.13
2018-04-12T05:58:24.899Z,38.00
2018-04-12T06:00:53.563Z,36.30
2018-04-12T06:03:22.485Z,36.53
2018-04-12T06:05:50.887Z,33.73
2018-04-12T06:08:19.425Z,37.13
2018-04-12T06:10:49.933Z,35.83
2018-04-12T06:13:18.632Z,35.10
2018-04-12T06:15:47.911Z,32.80
2018-04-12T06:18:16.347Z,32.80
2018-04-12T06:20:44.646Z,32.60
2018-04-12T06:23:13.211Z,32.40
2018-04-12T06:25:41.821Z,32.70
2018-04-12T06:28:10.232Z,33.23
2018-04-12T06:30:38.715Z,31.13
2018-04-12T06:33:07.114Z,30.80
2018-04-12T06:35:35.757Z,29.83
2018-04-12T06:38:04.171Z,31.27
2018-04-12T06:40:32.503Z,30.67
2018-04-12T06:43:00.974Z,30.13
2018-04-12T06:45:29.275Z,30.10
2018-04-12T06:47:57.557Z,29.50
2018-04-12T06:50:26.288Z,29.73
2018-04-12T06:52:54.686Z,30.67
2018-04-12T06:55:23.041Z,29.37
2018-04-12T06:57:51.335Z,30.00
2018-04-12T07:00:19.787Z,29.47
2018-04-12T07:02:48.033Z,29.33
2018-04-12T07:05:16.309Z,30.07
2018-04-12T07:07:44.634Z,30.00
2018-04-12T07:10:12.935Z,30.40
2018-04-12T07:12:41.323Z,29.03
2018-04-12T07:15:09.651Z,27.47
2018-04-12T07:17:37.954Z,27.83
2018-04-12T07:20:06.247Z,29.20
2018-04-12T07:22:34.570Z,28.73
2018-04-12T07:25:02.819Z,28.00
2018-04-12T07:27:31.135Z,26.60
2018-04-12T07:29:59.433Z,26.70
2018-04-12T07:32:27.755Z,27.27
2018-04-12T07:35:02.802Z,26.87
2018-04-12T07:37:31.107Z,26.30
2018-04-12T07:39:59.346Z,26.70
2018-04-12T07:42:27.648Z,26.73
2018-04-12T07:44:55.939Z,25.93
2018-04-12T07:47:24.238Z,25.80
2018-04-12T07:49:52.543Z,25.10
2018-04-12T07:52:20.899Z,25.07
2018-04-12T07:54:49.271Z,23.90
2018-04-12T07:57:17.607Z,23.80
2018-04-12T07:59:45.863Z,23.80
2018-04-12T08:02:14.279Z,25.27
2018-04-12T08:04:42.906Z,23.33
2018-04-12T08:07:11.229Z,24.67
2018-04-12T08:09:39.519Z,23.63
2018-04-12T08:12:07.855Z,22.40
2018-04-12T08:14:36.132Z,23.83
2018-04-12T08:17:04.442Z,20.93
2018-04-12T08:19:32.855Z,22.67
2018-04-12T08:22:01.438Z,22.50
2018-04-12T08:24:29.806Z,21.63
2018-04-12T08:26:58.173Z,21.97
2018-04-12T08:29:26.551Z,21.30
2018-04-12T08:31:58.081Z,22.10
2018-04-12T08:34:27.988Z,21.60
2018-04-12T08:36:56.393Z,20.47
2018-04-12T08:39:24.683Z,20.17
2018-04-12T08:41:53.103Z,21.40
2018-04-12T08:44:21.522Z,21.37
2018-04-12T08:46:49.815Z,19.30
2018-04-12T08:49:18.166Z,20.43
2018-04-12T08:51:49.441Z,21.83
2018-04-12T08:54:17.696Z,19.77
2018-04-12T08:56:45.987Z,20.73
2018-04-12T08:59:14.223Z,19.60
2018-04-12T09:01:42.555Z,20.17
2018-04-12T09:04:10.811Z,19.07
2018-04-12T09:06:39.110Z,18.53
2018-04-12T09:09:07.364Z,17.40
2018-04-12T09:11:35.663Z,17.57
2018-04-12T09:14:03.957Z,17.37
2018-04-12T09:16:32.268Z,19.00
2018-04-12T09:19:00.537Z,19.47
2018-04-12T09:21:28.830Z,18.40
2018-04-12T09:23:59.887Z,17.73
2018-04-12T09:26:28.235Z,17.33
2018-04-12T09:28:56.553Z,16.23
2018-04-12T09:31:24.907Z,18.00
2018-04-12T09:33:53.350Z,16.93
2018-04-12T09:36:21.711Z,17.33
2018-04-12T09:38:49.969Z,16.53
2018-04-12T09:41:18.333Z,16.83
2018-04-12T09:43:46.744Z,18.43
2018-04-12T09:46:15.309Z,16.60
2018-04-12T09:48:43.622Z,15.83
2018-04-12T09:51:11.950Z,16.73
2018-04-12T09:53:40.275Z,15.90
2018-04-12T09:56:08.730Z,15.00
2018-04-12T09:58:37.231Z,15.07
2018-04-12T10:01:09.879Z,15.47
2018-04-12T10:03:42.324Z,14.80
2018-04-12T10:06:10.799Z,13.87
2018-04-12T10:08:48.528Z,14.20
2018-04-12T10:11:16.929Z,15.00
2018-04-12T10:13:45.498Z,14.63
2018-04-12T10:16:13.819Z,13.00
2018-04-12T10:18:42.087Z,13.57
2018-04-12T10:21:10.590Z,13.30
2018-04-12T10:23:38.867Z,13.53
2018-04-12T10:26:07.180Z,13.53
2018-04-12T10:28:35.545Z,13.63
2018-04-12T10:31:03.862Z,13.23
2018-04-12T10:33:32.154Z,12.97
2018-04-12T10:36:00.554Z,12.23
2018-04-12T10:38:28.877Z,10.70
2018-04-12T10:40:57.317Z,10.80
2018-04-12T10:43:25.578Z,10.40
2018-04-12T10:45:53.894Z,8.43
2018-04-12T10:48:22.210Z,9.60
2018-04-12T10:50:50.518Z,9.80
2018-04-12T10:53:18.836Z,9.50
2018-04-12T10:55:47.142Z,9.23
2018-04-12T10:58:15.378Z,9.87
2018-04-12T11:00:43.666Z,8.03
2018-04-12T11:03:13.177Z,7.80
2018-04-12T11:05:41.482Z,8.87
2018-04-12T11:08:09.816Z,7.80
2018-04-12T11:10:38.149Z,8.07
2018-04-12T11:13:06.599Z,6.97
2018-04-12T11:15:34.900Z,7.97
2018-04-12T11:18:03.142Z,7.17
2018-04-12T11:20:31.524Z,6.73
2018-04-12T11:22:59.920Z,6.70
2018-04-12T11:25:28.338Z,6.60
2018-04-12T11:27:56.551Z,6.67
2018-04-12T11:30:24.825Z,6.37
2018-04-12T11:32:53.238Z,6.93
2018-04-12T11:35:21.666Z,7.23
2018-04-12T11:37:49.929Z,6.60
2018-04-12T11:40:18.218Z,6.30
2018-04-12T11:42:46.505Z,6.97
2018-04-12T11:45:14.826Z,6.93
2018-04-12T11:47:43.071Z,6.07
2018-04-12T11:50:11.374Z,6.00
2018-04-12T11:52:39.700Z,6.10
2018-04-12T11:55:08.119Z,5.90
2018-04-12T11:57:36.407Z,5.50
2018-04-12T12:00:04.759Z,5.37
2018-04-12T12:02:33.056Z,6.37
2018-04-12T12:05:01.507Z,6.00
2018-04-12T12:07:30.174Z,4.70
2018-04-12T12:09:58.475Z,5.67
2018-04-12T12:12:26.854Z,5.00
2018-04-12T12:14:55.083Z,5.40
2018-04-12T12:17:23.614Z,5.33
2018-04-12T12:19:51.890Z,5.37
2018-04-12T12:22:20.221Z,5.43
2018-04-12T12:24:48.496Z,5.50
2018-04-12T12:27:16.979Z,4.80
2018-04-12T12:29:45.250Z,4.63
2018-04-12T12:32:13.707Z,5.33
2018-04-12T12:34:42.026Z,5.27
2018-04-12T12:37:10.336Z,5.50
2018-04-12T12:39:38.591Z,5.40
2018-04-12T12:42:07.019Z,5.30
2018-04-12T12:44:35.364Z,4.93
2018-04-12T12:47:03.718Z,4.63
2018-04-12T12:49:32.071Z,4.77
2018-04-12T12:52:00.342Z,5.40
2018-04-12T12:54:28.628Z,5.30
2018-04-12T12:56:56.953Z,4.73
2018-04-12T12:59:25.388Z,4.17
2018-04-12T13:01:53.679Z,4.27
2018-04-12T13:04:21.994Z,4.73
2018-04-12T13:06:50.304Z,4.40
2018-04-12T13:09:18.732Z,4.80
2018-04-12T13:11:47.003Z,4.77
2018-04-12T13:14:15.290Z,5.37
2018-04-12T13:16:43.591Z,5.47
2018-04-12T13:19:12.035Z,5.30
2018-04-12T13:21:40.363Z,5.90
2018-04-12T13:24:08.878Z,4.80
2018-04-12T13:26:37.306Z,5.20
2018-04-12T13:29:05.575Z,5.20
2018-04-12T13:31:34.055Z,5.00
2018-04-12T13:34:02.370Z,4.30
2018-04-12T13:36:30.788Z,4.80
2018-04-12T13:38:59.123Z,4.93
2018-04-12T13:41:27.405Z,4.90
2018-04-12T13:43:55.736Z,5.23
2018-04-12T13:46:24.096Z,5.07
2018-04-12T13:48:52.384Z,3.93
2018-04-12T13:51:20.671Z,4.80
2018-04-12T13:53:48.927Z,4.67
2018-04-12T13:56:17.459Z,5.17
2018-04-12T13:58:45.715Z,4.20
2018-04-12T14:01:14.026Z,4.60
2018-04-12T14:03:42.277Z,4.53
2018-04-12T14:06:10.543Z,3.93
2018-04-12T14:08:39.024Z,3.73
2018-04-12T14:11:07.422Z,4.10
2018-04-12T14:13:35.711Z,5.00
2018-04-12T14:16:04.030Z,4.60
2018-04-12T14:18:32.518Z,4.03
2018-04-12T14:21:00.796Z,5.10
2018-04-12T14:23:30.074Z,4.80
2018-04-12T14:25:58.563Z,5.00
2018-04-12T14:28:26.829Z,5.20
2018-04-12T14:30:55.263Z,5.20
2018-04-12T14:33:23.645Z,4.80
2018-04-12T14:35:52.224Z,4.90
2018-04-12T14:38:20.740Z,6.00
2018-04-12T14:40:49.261Z,5.30
2018-04-12T14:43:17.523Z,4.60
2018-04-12T14:45:46.070Z,5.40
2018-04-12T14:48:14.326Z,5.33
2018-04-12T14:50:42.613Z,5.00
2018-04-12T14:53:11.015Z,4.63
2018-04-12T14:55:39.330Z,5.50
2018-04-12T14:58:07.598Z,5.30
2018-04-12T15:00:36.155Z,5.30
2018-04-12T15:03:04.703Z,4.63
2018-04-12T15:05:33.052Z,4.80
2018-04-12T15:08:01.315Z,5.23
2018-04-12T15:10:29.622Z,5.10
2018-04-12T15:12:57.947Z,5.43
2018-04-12T15:15:26.366Z,4.70
2018-04-12T15:17:54.825Z,5.50
2018-04-12T15:20:23.118Z,5.10
2018-04-12T15:22:51.402Z,4.20
2018-04-12T15:25:19.758Z,5.27
2018-04-12T15:27:48.013Z,5.23
2018-04-12T15:30:16.465Z,5.67
2018-04-12T15:32:44.743Z,5.10
2018-04-12T15:35:13.218Z,4.93
2018-04-12T15:37:41.532Z,5.37
2018-04-12T15:40:09.932Z,5.13
2018-04-12T15:42:38.193Z,5.60
2018-04-12T15:45:06.608Z,5.50
2018-04-12T15:47:34.866Z,5.03
2018-04-12T15:50:03.114Z,5.60
2018-04-12T15:52:31.445Z,5.50
2018-04-12T15:54:59.703Z,4.93
2018-04-12T15:57:27.973Z,5.13
2018-04-12T15:59:56.214Z,5.33
2018-04-12T16:02:24.511Z,4.70
2018-04-12T16:04:52.754Z,4.90
2018-04-12T16:07:21.167Z,6.27
2018-04-12T16:09:49.597Z,8.57
2018-04-12T16:12:17.883Z,7.80
2018-04-12T16:14:46.115Z,8.93
2018-04-12T16:17:14.508Z,8.60
2018-04-12T16:19:42.878Z,9.50
2018-04-12T16:22:11.249Z,9.50
2018-04-12T16:24:39.530Z,10.53
2018-04-12T16:27:08.006Z,9.30
2018-04-12T16:29:36.335Z,10.17
2018-04-12T16:32:04.770Z,10.37
2018-04-12T16:34:33.430Z,9.90
2018-04-12T16:37:01.911Z,9.50
2018-04-12T16:39:30.224Z,9.90
2018-04-12T16:41:58.535Z,9.50
2018-04-12T16:44:26.816Z,10.00
2018-04-12T16:46:55.111Z,9.77
2018-04-12T16:49:23.420Z,10.80
2018-04-12T16:51:51.732Z,9.60
2018-04-12T16:54:20.085Z,9.73
2018-04-12T16:56:48.442Z,11.70
2018-04-12T16:59:16.715Z,11.40
2018-04-12T17:01:45.024Z,11.10
2018-04-12T17:04:13.298Z,11.00
2018-04-12T17:06:41.618Z,11.60
2018-04-12T17:09:09.912Z,11.37
2018-04-12T17:11:38.303Z,12.03
2018-04-12T17:14:06.598Z,11.07
2018-04-12T17:16:34.890Z,12.10
2018-04-12T17:19:03.268Z,11.87
2018-04-12T17:21:31.736Z,13.03
2018-04-12T17:24:00.156Z,11.80
2018-04-12T17:26:28.450Z,12.50
2018-04-12T17:28:56.927Z,12.77
2018-04-12T17:31:26.437Z,12.80
2018-04-12T17:33:54.713Z,13.07
2018-04-12T17:36:23.108Z,13.90
2018-04-12T17:38:51.353Z,14.50
2018-04-12T17:41:19.687Z,14.50
2018-04-12T17:43:48.947Z,16.30
2018-04-12T17:46:17.254Z,14.50
2018-04-12T17:48:45.526Z,15.60
2018-04-12T17:51:13.827Z,16.13
2018-04-12T17:53:42.143Z,15.70
2018-04-12T17:56:10.444Z,16.10
2018-04-12T17:58:38.764Z,16.17
2018-04-12T18:01:07.126Z,15.87
2018-04-12T18:03:37.364Z,17.40
2018-04-12T18:06:06.593Z,17.27
2018-04-12T18:08:35.059Z,15.43
2018-04-12T18:11:03.531Z,16.87
2018-04-12T18:13:31.835Z,18.00
2018-04-12T18:16:00.157Z,17.13
2018-04-12T18:18:28.533Z,18.37
2018-04-12T18:20:57.209Z,17.90
2018-04-12T18:23:25.542Z,19.13
2018-04-12T18:25:53.981Z,18.20
2018-04-12T18:28:23.046Z,18.17
2018-04-12T18:30:51.554Z,18.67
2018-04-12T18:33:19.985Z,17.50
2018-04-12T18:35:48.320Z,19.60
2018-04-12T18:38:16.692Z,20.50
2018-04-12T18:40:45.191Z,20.67
2018-04-12T18:43:13.653Z,21.17
2018-04-12T18:45:42.778Z,21.57
2018-04-12T18:48:14.059Z,21.30
2018-04-12T18:50:46.084Z,22.83
2018-04-12T18:53:15.158Z,21.57
2018-04-12T18:55:43.777Z,23.07
2018-04-12T18:58:12.903Z,21.40
2018-04-12T19:00:41.241Z,22.00
2018-04-12T19:03:09.526Z,21.90
2018-04-12T19:05:37.856Z,23.47
2018-04-12T19:08:06.158Z,23.17
2018-04-12T19:10:34.802Z,23.53
2018-04-12T19:13:04.918Z,24.50
2018-04-12T19:15:37.655Z,23.63
2018-04-12T19:18:06.362Z,24.77
2018-04-12T19:20:35.234Z,25.27
2018-04-12T19:23:04.906Z,24.70
2018-04-12T19:25:33.419Z,25.80
2018-04-12T19:28:01.851Z,24.40
2018-04-12T19:30:30.225Z,24.83
2018-04-12T19:32:58.947Z,26.47
2018-04-12T19:35:27.392Z,27.27
2018-04-12T19:37:55.985Z,27.00
2018-04-12T19:40:24.302Z,25.63
2018-04-12T19:42:52.764Z,27.27
2018-04-12T19:45:21.274Z,26.90
2018-04-12T19:47:49.735Z,26.60
2018-04-12T19:50:18.074Z,25.80
2018-04-12T19:52:46.627Z,26.50
2018-04-12T19:55:14.957Z,27.00
2018-04-12T19:57:43.366Z,28.60
2018-04-12T20:00:11.975Z,28.40
2018-04-12T20:02:40.415Z,29.13
2018-04-12T20:05:08.897Z,27.87
2018-04-12T20:07:37.290Z,28.50
2018-04-12T20:10:06.090Z,28.60
2018-04-12T20:12:36.162Z,29.40
2018-04-12T20:15:05.067Z,30.17
2018-04-12T20:17:33.686Z,28.80
2018-04-12T20:20:02.417Z,30.03
2018-04-12T20:22:30.938Z,31.43
2018-04-12T20:24:59.370Z,30.30
2018-04-12T20:27:27.706Z,30.43
2018-04-12T20:29:56.312Z,30.57
2018-04-12T20:32:24.874Z,31.47
2018-04-12T20:34:53.302Z,33.07
2018-04-12T20:37:21.749Z,33.73
2018-04-12T20:39:53.563Z,32.80
2018-04-12T20:42:22.008Z,33.23
2018-04-12T20:44:50.374Z,34.33
2018-04-12T20:47:18.770Z,32.67
2018-04-12T20:49:47.064Z,33.13
2018-04-12T20:52:15.400Z,35.93
2018-04-12T20:54:43.663Z,34.03
2018-04-12T20:57:12.041Z,34.77
2018-04-12T20:59:40.330Z,35.70
2018-04-12T21:02:08.641Z,34.70
2018-04-12T21:04:36.906Z,35.47
2018-04-12T21:07:05.206Z,33.63
2018-04-12T21:09:33.587Z,35.00
2018-04-12T21:12:02.083Z,37.20
2018-04-12T21:21:18.090Z,37.23
2018-04-12T21:23:46.369Z,36.77
2018-04-12T21:26:14.707Z,39.20
2018-04-12T21:28:42.968Z,35.93
2018-04-12T21:31:11.376Z,36.00
2018-04-12T21:33:40.007Z,37.97
2018-04-12T21:36:08.341Z,37.17
2018-04-12T21:38:36.708Z,37.90
2018-04-12T21:41:05.114Z,37.83
2018-04-12T21:43:33.462Z,37.20
2018-04-12T21:46:01.982Z,36.57
2018-04-12T21:48:30.310Z,37.93
2018-04-12T21:50:58.801Z,37.30
2018-04-12T21:53:27.244Z,38.03
2018-04-12T21:55:55.586Z,38.03
2018-04-12T21:58:23.870Z,37.83
2018-04-12T22:00:52.216Z,39.13
2018-04-12T22:03:20.509Z,38.20
2018-04-12T22:05:48.905Z,36.50
2018-04-12T22:08:17.158Z,38.40
2018-04-12T22:10:45.448Z,39.57
2018-04-12T22:13:13.698Z,38.33
2018-04-12T22:15:42.120Z,38.83
2018-04-12T22:18:10.362Z,38.60
2018-04-12T22:20:38.650Z,39.10
2018-04-12T22:23:06.988Z,39.00
2018-04-12T22:25:35.339Z,38.87
2018-04-12T22:28:03.643Z,38.50
2018-04-12T22:30:32.182Z,37.43
2018-04-12T22:33:00.458Z,38.40
2018-04-12T22:35:28.766Z,36.60
2018-04-12T22:37:57.190Z,38.00
2018-04-12T22:40:25.516Z,36.17
2018-04-12T22:42:53.836Z,38.20
2018-04-12T22:45:22.271Z,36.30
2018-04-12T22:47:50.698Z,35.60
2018-04-12T22:50:19.298Z,38.60
2018-04-12T22:52:47.666Z,36.50
2018-04-12T22:55:15.971Z,37.13
2018-04-12T22:57:44.433Z,35.93
2018-04-12T23:00:13.154Z,36.47
2018-04-12T23:02:41.450Z,35.20
2018-04-12T23:05:09.726Z,35.33
2018-04-12T23:07:38.150Z,36.93
2018-04-12T23:10:06.472Z,36.67
2018-04-12T23:12:34.838Z,35.97
2018-04-12T23:15:03.431Z,35.70
2018-04-12T23:17:31.897Z,33.37
2018-04-12T23:20:00.184Z,35.87
2018-04-12T23:22:29.616Z,34.57
2018-04-12T23:24:57.864Z,35.00
2018-04-12T23:27:26.402Z,37.23
2018-04-12T23:29:54.713Z,36.83
2018-04-12T23:32:23.015Z,35.43
2018-04-12T23:34:51.266Z,35.83
2018-04-12T23:37:19.757Z,36.77
2018-04-12T23:39:48.233Z,35.57
2018-04-12T23:42:16.810Z,37.40
2018-04-12T23:44:45.070Z,34.57
2018-04-12T23:47:13.383Z,35.70
2018-04-12T23:49:41.639Z,34.77
2018-04-12T23:52:09.946Z,36.60
2018-04-12T23:54:38.209Z,37.60
2018-04-12T23:57:06.694Z,36.60
2018-04-12T23:59:35.164Z,35.07
